createdAt,value
2018-05-14T00:02:25.202Z,95.00
2018-05-14T00:04:52.727Z,95.20
2018-05-14T00:07:20.676Z,95.50
2018-05-14T00:09:48.238Z,95.40
2018-05-14T00:12:15.834Z,95.40
2018-05-14T00:14:43.379Z,95.40
2018-05-14T00:17:11.189Z,95.40
2018-05-14T00:19:38.757Z,95.00
2018-05-14T00:22:06.300Z,94.80
2018-05-14T00:24:33.877Z,94.80
2018-05-14T00:27:01.413Z,94.90
2018-05-14T00:29:28.976Z,94.90
2018-05-14T00:31:56.549Z,94.90
2018-05-14T00:34:29.476Z,94.80
2018-05-14T00:36:57.037Z,94.70
2018-05-14T00:39:24.577Z,94.70
2018-05-14T00:41:52.127Z,94.80
2018-05-14T00:44:19.722Z,94.70
2018-05-14T00:46:47.250Z,94.00
2018-05-14T00:49:15.766Z,94.10
2018-05-14T00:51:43.277Z,93.90
2018-05-14T00:54:10.875Z,94.00
2018-05-14T00:56:38.415Z,94.10
2018-05-14T00:59:06.038Z,94.20
2018-05-14T01:01:33.573Z,94.30
2018-05-14T01:04:01.132Z,94.40
2018-05-14T01:06:28.700Z,94.50
2018-05-14T01:08:56.263Z,94.60
2018-05-14T01:11:23.840Z,94.60
2018-05-14T01:13:51.423Z,94.50
2018-05-14T01:16:19.006Z,94.30
2018-05-14T01:18:46.577Z,94.30
2018-05-14T01:21:14.089Z,94.10
2018-05-14T01:23:41.669Z,94.10
2018-05-14T01:26:09.233Z,94.20
2018-05-14T01:28:36.846Z,94.30
2018-05-14T01:31:04.477Z,94.00
2018-05-14T01:33:31.999Z,94.10
2018-05-14T01:35:59.568Z,94.30
2018-05-14T01:38:27.117Z,94.40
2018-05-14T01:40:54.748Z,94.10
2018-05-14T01:43:22.305Z,94.10
2018-05-14T01:45:50.269Z,94.20
2018-05-14T01:48:17.805Z,94.20
2018-05-14T01:50:45.376Z,94.40
2018-05-14T01:53:12.943Z,94.60
2018-05-14T01:55:40.475Z,94.60
2018-05-14T01:58:08.039Z,94.60
2018-05-14T02:00:35.623Z,94.60
2018-05-14T02:03:03.179Z,94.60
2018-05-14T02:05:34.893Z,94.40
2018-05-14T02:08:02.822Z,94.30
2018-05-14T02:10:30.394Z,94.30
2018-05-14T02:12:57.943Z,94.20
2018-05-14T02:15:25.497Z,94.20
2018-05-14T02:17:53.047Z,93.90
2018-05-14T02:20:20.620Z,94.00
2018-05-14T02:22:48.192Z,94.10
2018-05-14T02:25:15.762Z,94.10
2018-05-14T02:27:43.307Z,94.10
2018-05-14T02:30:10.890Z,94.00
2018-05-14T02:32:42.391Z,94.00
2018-05-14T02:35:09.975Z,93.90
2018-05-14T02:37:37.513Z,94.00
2018-05-14T02:40:05.138Z,94.10
2018-05-14T02:42:32.651Z,94.00
2018-05-14T02:45:00.252Z,94.00
2018-05-14T02:47:27.868Z,94.00
2018-05-14T02:49:55.499Z,94.00
2018-05-14T02:52:23.082Z,94.10
2018-05-14T02:54:50.673Z,94.00
2018-05-14T02:57:18.203Z,93.90
2018-05-14T02:59:45.787Z,93.90
2018-05-14T03:02:13.411Z,93.90
2018-05-14T03:04:41.036Z,93.70
2018-05-14T03:07:08.627Z,93.70
2018-05-14T03:09:36.167Z,93.90
2018-05-14T03:12:05.098Z,93.90
2018-05-14T03:14:32.670Z,93.90
2018-05-14T03:17:00.231Z,94.00
2018-05-14T03:19:27.809Z,94.00
2018-05-14T03:21:55.387Z,93.90
2018-05-14T03:24:22.951Z,94.00
2018-05-14T03:26:50.549Z,94.10
2018-05-14T03:29:18.094Z,94.10
2018-05-14T03:31:45.681Z,93.90
2018-05-14T03:34:13.247Z,94.00
2018-05-14T03:36:40.856Z,93.90
2018-05-14T03:39:08.404Z,93.90
2018-05-14T03:41:36.402Z,94.00
2018-05-14T03:44:03.987Z,94.00
2018-05-14T03:46:31.570Z,94.20
2018-05-14T03:48:59.144Z,94.20
2018-05-14T03:51:26.765Z,94.10
2018-05-14T03:53:54.306Z,94.20
2018-05-14T03:56:21.884Z,94.40
2018-05-14T03:59:01.300Z,94.50
2018-05-14T04:01:40.603Z,94.50
2018-05-14T04:04:19.867Z,94.70
2018-05-14T04:06:47.471Z,94.70
2018-05-14T04:09:15.081Z,94.70
2018-05-14T04:11:42.656Z,94.70
2018-05-14T04:14:11.033Z,94.70
2018-05-14T04:16:38.649Z,94.50
2018-05-14T04:19:06.172Z,94.50
2018-05-14T04:21:33.774Z,94.50
2018-05-14T04:24:01.337Z,94.60
2018-05-14T04:26:28.909Z,94.60
2018-05-14T04:28:56.430Z,94.60
2018-05-14T04:31:23.993Z,94.40
2018-05-14T04:33:51.563Z,94.20
2018-05-14T04:36:19.123Z,94.30
2018-05-14T04:38:46.670Z,94.30
2018-05-14T04:41:14.296Z,94.20
2018-05-14T04:43:41.827Z,94.00
2018-05-14T04:46:09.406Z,94.10
2018-05-14T04:48:36.959Z,94.10
2018-05-14T04:51:04.503Z,94.00
2018-05-14T04:53:32.048Z,94.00
2018-05-14T04:55:59.600Z,94.00
2018-05-14T04:58:27.188Z,93.90
2018-05-14T05:00:54.768Z,93.80
2018-05-14T05:03:22.362Z,93.60
2018-05-14T05:06:04.903Z,93.40
2018-05-14T05:08:32.493Z,93.30
2018-05-14T05:11:00.051Z,93.30
2018-05-14T05:13:28.023Z,93.30
2018-05-14T05:15:55.577Z,93.30
2018-05-14T05:18:23.180Z,93.30
2018-05-14T05:20:50.724Z,93.30
2018-05-14T05:23:18.310Z,93.30
2018-05-14T05:25:45.867Z,93.10
2018-05-14T05:28:13.441Z,92.80
2018-05-14T05:30:41.027Z,92.80
2018-05-14T05:33:08.570Z,92.90
2018-05-14T05:35:36.097Z,92.90
2018-05-14T05:38:03.739Z,92.90
2018-05-14T05:40:31.236Z,92.80
2018-05-14T05:42:58.839Z,92.40
2018-05-14T05:45:26.481Z,92.20
2018-05-14T05:47:54.052Z,91.90
2018-05-14T05:50:21.661Z,92.20
2018-05-14T05:52:49.222Z,92.10
2018-05-14T05:55:16.792Z,91.90
2018-05-14T05:57:44.427Z,91.20
2018-05-14T06:00:11.970Z,91.40
2018-05-14T06:02:39.548Z,91.10
2018-05-14T06:05:07.104Z,90.80
2018-05-14T06:07:34.681Z,90.80
2018-05-14T06:10:02.206Z,90.60
2018-05-14T06:12:29.809Z,91.60
2018-05-14T06:14:57.398Z,91.60
2018-05-14T06:17:25.024Z,91.40
2018-05-14T06:19:52.610Z,91.20
2018-05-14T06:22:20.598Z,91.60
2018-05-14T06:24:48.123Z,91.60
2018-05-14T06:27:15.692Z,91.30
2018-05-14T06:29:43.661Z,91.20
2018-05-14T06:32:11.679Z,91.30
2018-05-14T06:34:39.365Z,91.30
2018-05-14T06:37:10.892Z,91.10
2018-05-14T06:39:38.447Z,91.60
2018-05-14T06:42:05.984Z,91.40
2018-05-14T06:44:33.563Z,91.20
2018-05-14T06:47:01.102Z,90.90
2018-05-14T06:49:28.690Z,91.00
2018-05-14T06:51:56.269Z,91.00
2018-05-14T06:54:23.836Z,90.90
2018-05-14T06:56:51.375Z,91.00
2018-05-14T06:59:24.769Z,91.50
2018-05-14T07:01:52.277Z,90.60
2018-05-14T07:04:19.826Z,90.10
2018-05-14T07:06:47.375Z,89.50
2018-05-14T07:09:14.922Z,89.70
2018-05-14T07:11:45.697Z,90.10
2018-05-14T07:14:13.556Z,90.20
2018-05-14T07:16:41.670Z,89.90
2018-05-14T07:19:09.194Z,89.50
2018-05-14T07:21:36.721Z,89.90
2018-05-14T07:24:15.528Z,90.60
2018-05-14T07:26:43.151Z,90.90
2018-05-14T07:29:10.696Z,91.10
2018-05-14T07:31:38.241Z,91.30
2018-05-14T07:34:05.823Z,90.50
2018-05-14T07:36:33.418Z,89.80
2018-05-14T07:39:01.039Z,89.60
2018-05-14T07:41:28.583Z,89.30
2018-05-14T07:43:56.168Z,88.80
2018-05-14T07:46:23.731Z,88.90
2018-05-14T07:48:51.334Z,88.70
2018-05-14T07:51:18.900Z,89.70
2018-05-14T07:53:46.510Z,88.00
2018-05-14T07:56:14.050Z,87.00
2018-05-14T07:58:41.606Z,85.70
2018-05-14T08:01:09.175Z,85.80
2018-05-14T08:03:36.750Z,85.00
2018-05-14T08:06:04.280Z,85.50
2018-05-14T08:08:31.830Z,85.40
2018-05-14T08:11:05.346Z,84.40
2018-05-14T08:13:32.905Z,85.10
2018-05-14T08:16:02.578Z,85.20
2018-05-14T08:18:30.106Z,86.30
2018-05-14T08:20:57.697Z,87.10
2018-05-14T08:23:25.366Z,86.60
2018-05-14T08:25:52.889Z,85.70
2018-05-14T08:28:20.468Z,85.70
2018-05-14T08:30:48.039Z,85.20
2018-05-14T08:33:15.602Z,85.70
2018-05-14T08:35:43.210Z,85.00
2018-05-14T08:38:10.763Z,86.40
2018-05-14T08:40:39.309Z,86.30
2018-05-14T08:43:06.874Z,84.30
2018-05-14T08:45:34.459Z,85.20
2018-05-14T08:48:02.089Z,84.90
2018-05-14T08:50:30.059Z,85.00
2018-05-14T08:52:57.992Z,84.60
2018-05-14T08:55:25.580Z,84.50
2018-05-14T08:57:53.129Z,84.90
2018-05-14T09:00:20.708Z,85.50
2018-05-14T09:02:48.234Z,86.00
2018-05-14T09:05:15.779Z,86.40
2018-05-14T09:07:43.366Z,86.00
2018-05-14T09:10:10.915Z,84.60
2018-05-14T09:12:38.483Z,83.70
2018-05-14T09:15:06.035Z,82.00
2018-05-14T09:17:33.589Z,82.40
2018-05-14T09:20:01.155Z,81.40
2018-05-14T09:22:28.687Z,81.90
2018-05-14T09:24:56.247Z,82.50
2018-05-14T09:27:23.820Z,83.20
2018-05-14T09:29:51.411Z,83.00
2018-05-14T09:32:19.048Z,84.80
2018-05-14T09:34:48.521Z,85.30
2018-05-14T09:37:16.073Z,86.40
2018-05-14T09:39:43.652Z,85.90
2018-05-14T09:42:11.187Z,86.70
2018-05-14T09:44:38.798Z,87.20
2018-05-14T09:47:06.326Z,87.10
2018-05-14T09:49:33.888Z,85.90
2018-05-14T09:52:01.463Z,85.80
2018-05-14T09:54:28.993Z,84.20
2018-05-14T09:56:56.539Z,85.20
2018-05-14T09:59:24.158Z,84.40
2018-05-14T10:01:51.781Z,84.30
2018-05-14T10:04:19.335Z,84.10
2018-05-14T10:06:46.911Z,84.90
2018-05-14T10:09:14.472Z,85.20
2018-05-14T10:11:42.043Z,84.50
2018-05-14T10:14:09.598Z,84.40
2018-05-14T10:16:37.259Z,85.30
2018-05-14T10:19:04.803Z,85.70
2018-05-14T10:21:32.347Z,85.20
2018-05-14T10:23:59.910Z,85.40
2018-05-14T10:26:27.468Z,86.00
2018-05-14T10:28:55.008Z,86.50
2018-05-14T10:31:22.597Z,87.10
2018-05-14T10:33:50.152Z,87.40
2018-05-14T10:36:17.734Z,87.20
2018-05-14T10:38:45.310Z,87.80
2018-05-14T10:41:12.905Z,86.60
2018-05-14T10:43:40.434Z,86.60
2018-05-14T10:46:08.044Z,86.80
2018-05-14T10:48:35.584Z,87.20
2018-05-14T10:51:03.156Z,86.90
2018-05-14T10:53:30.739Z,86.00
2018-05-14T10:55:58.327Z,85.80
2018-05-14T10:58:25.905Z,86.40
2018-05-14T11:00:53.510Z,86.40
2018-05-14T11:03:21.046Z,86.90
2018-05-14T11:05:48.615Z,87.10
2018-05-14T11:08:16.183Z,87.70
2018-05-14T11:10:43.739Z,88.50
2018-05-14T11:13:11.285Z,88.10
2018-05-14T11:15:38.851Z,87.40
2018-05-14T11:18:06.486Z,87.00
2018-05-14T11:20:34.063Z,86.90
2018-05-14T11:23:01.608Z,87.20
2018-05-14T11:25:29.143Z,86.80
2018-05-14T11:27:56.852Z,87.10
2018-05-14T11:30:24.323Z,87.30
2018-05-14T11:32:52.022Z,87.40
2018-05-14T11:35:19.610Z,87.00
2018-05-14T11:37:47.224Z,87.10
2018-05-14T11:40:15.210Z,85.70
2018-05-14T11:42:42.788Z,85.70
2018-05-14T11:45:10.351Z,86.00
2018-05-14T11:47:37.976Z,86.20
2018-05-14T11:50:05.530Z,85.80
2018-05-14T11:52:33.478Z,86.70
2018-05-14T11:55:01.012Z,86.70
2018-05-14T11:57:28.646Z,85.20
2018-05-14T11:59:56.213Z,86.00
2018-05-14T12:02:27.644Z,86.50
2018-05-14T12:04:58.651Z,86.70
2018-05-14T12:07:26.257Z,86.30
2018-05-14T12:09:55.923Z,86.00
2018-05-14T12:12:24.006Z,86.00
2018-05-14T12:15:15.780Z,85.90
2018-05-14T12:17:43.531Z,86.00
2018-05-14T12:20:11.214Z,85.60
2018-05-14T12:22:38.762Z,85.20
2018-05-14T12:25:10.044Z,84.80
2018-05-14T12:27:37.990Z,85.60
2018-05-14T12:30:05.575Z,85.50
2018-05-14T12:32:34.478Z,84.60
2018-05-14T12:35:02.254Z,84.60
2018-05-14T12:37:29.899Z,84.60
2018-05-14T12:39:57.411Z,84.60
2018-05-14T12:42:25.452Z,83.90
2018-05-14T12:44:57.051Z,84.80
2018-05-14T12:47:26.705Z,85.10
2018-05-14T12:49:54.246Z,86.00
2018-05-14T12:52:21.870Z,86.20
2018-05-14T12:54:49.434Z,85.90
2018-05-14T12:57:17.097Z,85.70
2018-05-14T12:59:44.651Z,85.50
2018-05-14T13:02:12.251Z,85.40
2018-05-14T13:04:39.829Z,85.90
2018-05-14T13:07:07.492Z,85.10
2018-05-14T13:09:35.064Z,85.30
2018-05-14T13:12:02.648Z,84.50
2018-05-14T13:14:30.498Z,84.80
2018-05-14T13:16:58.142Z,85.90
2018-05-14T13:19:25.749Z,86.60
2018-05-14T13:21:53.321Z,86.70
2018-05-14T13:24:20.900Z,87.10
2018-05-14T13:27:02.604Z,87.30
2018-05-14T13:29:30.182Z,87.40
2018-05-14T13:31:57.828Z,87.40
2018-05-14T13:34:34.024Z,87.00
2018-05-14T13:37:01.566Z,87.20
2018-05-14T13:39:29.170Z,87.10
2018-05-14T13:41:56.744Z,87.10
2018-05-14T13:44:24.383Z,86.70
2018-05-14T13:46:51.891Z,86.40
2018-05-14T13:49:19.480Z,86.20
2018-05-14T13:51:54.462Z,86.20
2018-05-14T13:54:22.056Z,86.00
2018-05-14T13:56:49.694Z,86.30
2018-05-14T13:59:17.327Z,86.30
2018-05-14T14:01:44.881Z,86.00
2018-05-14T14:04:12.482Z,86.50
2018-05-14T14:06:40.104Z,87.10
2018-05-14T14:09:07.682Z,87.40
2018-05-14T14:11:35.244Z,87.60
2018-05-14T14:14:17.857Z,87.20
2018-05-14T14:16:45.406Z,87.30
2018-05-14T14:19:12.959Z,87.20
2018-05-14T14:21:40.534Z,87.90
2018-05-14T14:24:08.225Z,87.70
2018-05-14T14:26:35.699Z,86.70
2018-05-14T14:29:03.277Z,87.20
2018-05-14T14:31:30.834Z,86.80
2018-05-14T14:33:58.423Z,85.60
2018-05-14T14:36:26.022Z,85.50
2018-05-14T14:38:53.571Z,85.40
2018-05-14T14:41:21.137Z,85.50
2018-05-14T14:43:48.717Z,86.20
2018-05-14T14:46:16.349Z,84.90
2018-05-14T14:48:48.395Z,84.10
2018-05-14T14:51:15.958Z,82.80
2018-05-14T14:53:43.610Z,84.20
2018-05-14T14:56:11.274Z,83.90
2018-05-14T14:58:38.875Z,84.30
2018-05-14T15:01:06.455Z,84.60
2018-05-14T15:03:34.047Z,85.60
2018-05-14T15:06:01.600Z,86.30
2018-05-14T15:08:29.177Z,86.60
2018-05-14T15:10:56.810Z,86.80
2018-05-14T15:13:24.491Z,87.90
2018-05-14T15:15:52.022Z,87.70
2018-05-14T15:18:19.664Z,88.40
2018-05-14T15:20:47.279Z,88.30
2018-05-14T15:23:15.594Z,87.70
2018-05-14T15:25:43.328Z,88.40
2018-05-14T15:28:10.872Z,87.70
2018-05-14T15:30:38.638Z,86.90
2018-05-14T15:33:06.206Z,86.40
2018-05-14T15:35:33.838Z,85.90
2018-05-14T15:38:01.431Z,87.10
2018-05-14T15:40:29.046Z,87.70
2018-05-14T15:42:56.593Z,87.80
2018-05-14T15:45:24.578Z,88.40
2018-05-14T15:47:52.162Z,88.50
2018-05-14T15:50:19.790Z,88.70
2018-05-14T15:52:47.359Z,89.70
2018-05-14T15:55:15.023Z,89.80
2018-05-14T15:57:42.621Z,90.10
2018-05-14T16:00:10.186Z,90.30
2018-05-14T16:02:38.171Z,91.70
2018-05-14T16:05:05.807Z,91.50
2018-05-14T16:07:33.762Z,92.60
2018-05-14T16:10:01.402Z,92.60
2018-05-14T16:12:29.347Z,93.00
2018-05-14T16:14:57.119Z,92.60
2018-05-14T16:17:25.152Z,92.60
2018-05-14T16:19:52.820Z,92.70
2018-05-14T16:22:20.439Z,92.70
2018-05-14T16:24:48.069Z,92.80
2018-05-14T16:27:15.653Z,92.80
2018-05-14T16:29:43.251Z,92.90
2018-05-14T16:32:10.786Z,93.40
2018-05-14T16:34:38.769Z,94.10
2018-05-14T16:37:06.355Z,94.10
2018-05-14T16:39:33.947Z,94.20
2018-05-14T16:42:01.559Z,94.40
2018-05-14T16:44:29.120Z,94.60
2018-05-14T16:46:57.030Z,94.70
2018-05-14T16:49:24.666Z,94.50
2018-05-14T16:51:52.504Z,94.50
2018-05-14T16:54:20.083Z,94.60
2018-05-14T16:56:47.845Z,94.40
2018-05-14T16:59:16.418Z,94.40
2018-05-14T17:01:44.312Z,94.40
2018-05-14T17:04:12.039Z,94.50
2018-05-14T17:06:39.541Z,94.20
2018-05-14T17:09:07.151Z,94.10
2018-05-14T17:11:34.752Z,94.10
2018-05-14T17:14:02.586Z,94.20
2018-05-14T17:16:30.238Z,94.10
2018-05-14T17:18:57.804Z,94.00
2018-05-14T17:21:25.449Z,93.60
2018-05-14T17:23:53.498Z,93.60
2018-05-14T17:26:21.148Z,93.70
2018-05-14T17:28:48.798Z,93.80
2018-05-14T17:31:16.768Z,93.90
2018-05-14T17:33:45.082Z,93.40
2018-05-14T17:36:12.721Z,93.00
2018-05-14T17:38:40.752Z,92.90
2018-05-14T17:41:08.404Z,92.90
2018-05-14T17:43:36.008Z,92.40
2018-05-14T17:46:04.425Z,92.50
2018-05-14T17:48:32.425Z,92.40
2018-05-14T17:51:00.063Z,92.10
2018-05-14T17:53:27.633Z,91.30
2018-05-14T17:55:55.184Z,92.00
2018-05-14T17:58:22.747Z,92.60
2018-05-14T18:00:50.648Z,92.70
2018-05-14T18:03:18.327Z,92.60
2018-05-14T18:05:46.518Z,92.40
2018-05-14T18:08:14.054Z,92.40
2018-05-14T18:10:41.681Z,92.70
2018-05-14T18:13:09.219Z,92.70
2018-05-14T18:15:37.196Z,92.90
2018-05-14T18:18:05.168Z,93.00
2018-05-14T18:20:32.727Z,93.10
2018-05-14T18:23:00.364Z,93.30
2018-05-14T18:25:33.671Z,93.80
2018-05-14T18:28:01.645Z,93.80
2018-05-14T18:30:29.287Z,93.90
2018-05-14T18:33:02.608Z,94.10
2018-05-14T18:35:35.878Z,94.40
2018-05-14T18:38:03.811Z,94.30
2018-05-14T18:40:31.386Z,94.50
2018-05-14T18:42:59.001Z,94.40
2018-05-14T18:45:26.868Z,94.60
2018-05-14T18:47:54.864Z,95.00
2018-05-14T18:50:22.571Z,95.00
2018-05-14T18:52:50.158Z,95.10
2018-05-14T18:55:18.162Z,95.10
2018-05-14T18:57:46.206Z,95.10
2018-05-14T19:00:13.789Z,95.10
2018-05-14T19:02:41.472Z,95.20
2018-05-14T19:05:09.139Z,95.20
2018-05-14T19:07:36.859Z,95.30
2018-05-14T19:13:05.644Z,95.50
2018-05-14T19:15:38.887Z,95.40
2018-05-14T19:18:06.575Z,95.30
2018-05-14T19:20:34.205Z,95.20
2018-05-14T19:23:07.588Z,95.20
2018-05-14T19:25:35.995Z,95.20
2018-05-14T19:28:09.234Z,95.20
2018-05-14T19:30:36.985Z,95.00
2018-05-14T19:33:04.589Z,95.00
2018-05-14T19:35:52.192Z,95.00
2018-05-14T19:38:19.860Z,95.00
2018-05-14T19:40:51.560Z,95.00
2018-05-14T19:43:19.317Z,95.00
2018-05-14T19:45:46.911Z,95.20
2018-05-14T19:48:14.975Z,95.10
2018-05-14T19:50:42.999Z,95.00
2018-05-14T19:53:10.601Z,95.00
2018-05-14T19:55:38.587Z,95.00
2018-05-14T19:58:06.348Z,95.00
2018-05-14T20:00:34.049Z,95.10
2018-05-14T20:03:01.740Z,95.30
2018-05-14T20:05:29.387Z,95.40
2018-05-14T20:07:56.978Z,95.60
2018-05-14T20:10:24.631Z,95.70
2018-05-14T20:12:52.222Z,95.80
2018-05-14T20:15:19.819Z,95.80
2018-05-14T20:17:47.483Z,95.80
2018-05-14T20:20:15.468Z,95.90
2018-05-14T20:22:42.985Z,95.80
2018-05-14T20:25:10.699Z,95.80
2018-05-14T20:27:38.687Z,95.80
2018-05-14T20:30:06.296Z,95.80
2018-05-14T20:32:34.323Z,95.70
2018-05-14T20:35:01.950Z,95.70
2018-05-14T20:37:29.578Z,95.70
2018-05-14T20:39:57.156Z,95.60
2018-05-14T20:42:25.414Z,95.70
2018-05-14T20:44:53.052Z,95.90
2018-05-14T20:47:20.641Z,95.90
2018-05-14T20:49:48.229Z,95.80
2018-05-14T20:52:16.198Z,95.80
2018-05-14T20:54:43.790Z,95.80
2018-05-14T20:57:11.382Z,95.80
2018-05-14T20:59:38.996Z,95.80
2018-05-14T21:02:06.581Z,95.60
2018-05-14T21:04:34.144Z,95.70
2018-05-14T21:07:01.730Z,95.80
2018-05-14T21:09:29.453Z,95.80
2018-05-14T21:11:56.991Z,95.90
2018-05-14T21:14:24.562Z,96.00
2018-05-14T21:16:52.124Z,95.90
2018-05-14T21:19:19.743Z,95.90
2018-05-14T21:21:47.717Z,96.00
2018-05-14T21:24:15.319Z,96.00
2018-05-14T21:26:42.862Z,95.90
2018-05-14T21:29:10.513Z,95.80
2018-05-14T21:31:38.086Z,95.80
2018-05-14T21:34:05.693Z,95.70
2018-05-14T21:36:33.263Z,95.70
2018-05-14T21:39:00.916Z,95.70
2018-05-14T21:41:28.525Z,95.60
2018-05-14T21:43:56.127Z,95.50
2018-05-14T21:46:23.702Z,95.40
2018-05-14T21:48:51.273Z,95.40
2018-05-14T21:51:18.822Z,95.50
2018-05-14T21:53:46.823Z,95.40
2018-05-14T21:56:14.414Z,95.40
2018-05-14T21:58:41.985Z,95.50
2018-05-14T22:01:09.651Z,95.70
2018-05-14T22:03:37.251Z,95.70
2018-05-14T22:06:04.882Z,95.60
2018-05-14T22:08:32.469Z,95.70
2018-05-14T22:11:00.063Z,95.70
2018-05-14T22:13:27.650Z,95.60
2018-05-14T22:15:55.274Z,95.60
2018-05-14T22:18:22.938Z,95.50
2018-05-14T22:20:50.545Z,95.50
2018-05-14T22:23:18.192Z,95.50
2018-05-14T22:25:45.812Z,95.60
2018-05-14T22:28:13.405Z,95.70
2018-05-14T22:30:41.001Z,95.70
2018-05-14T22:33:08.588Z,95.60
2018-05-14T22:35:36.203Z,95.50
2018-05-14T22:38:04.200Z,95.70
2018-05-14T22:40:31.827Z,95.70
2018-05-14T22:42:59.383Z,95.60
2018-05-14T22:45:26.974Z,95.60
2018-05-14T22:47:54.547Z,95.70
2018-05-14T22:50:22.149Z,95.70
2018-05-14T22:52:49.713Z,95.80
2018-05-14T22:55:17.366Z,95.70
2018-05-14T22:57:45.011Z,95.80
2018-05-14T23:00:13.350Z,95.80
2018-05-14T23:02:40.949Z,95.90
2018-05-14T23:05:08.574Z,95.90
2018-05-14T23:07:36.174Z,95.90
2018-05-14T23:10:03.768Z,95.90
2018-05-14T23:12:31.361Z,95.90
2018-05-14T23:14:59.035Z,95.90
2018-05-14T23:17:26.617Z,95.90
2018-05-14T23:19:54.247Z,95.90
2018-05-14T23:22:21.817Z,96.00
2018-05-14T23:24:49.470Z,96.00
2018-05-14T23:27:17.039Z,96.10
2018-05-14T23:29:44.668Z,96.00
2018-05-14T23:32:12.267Z,96.10
2018-05-14T23:34:39.881Z,96.10
2018-05-14T23:37:07.526Z,96.10
2018-05-14T23:39:35.116Z,96.10
2018-05-14T23:42:02.754Z,96.10
2018-05-14T23:44:30.312Z,96.10
2018-05-14T23:46:57.887Z,96.10
2018-05-14T23:49:25.499Z,96.00
2018-05-14T23:51:53.128Z,95.90
2018-05-14T23:54:20.690Z,95.80
2018-05-14T23:56:48.476Z,95.80
2018-05-14T23:59:16.093Z,95.80
